Time;durP1;ratioP1;P1;durP2;ratioP2;P2;SDS_P1;SDS_P2;PMS_P1;PMS_P2;Temp;Humidity;BMP_temperature;BMP_pressure;BME280_temperature;BME280_humidity;BME280_pressure;Samples;Min_cycle;Max_cycle;Signal;HPM_P1;HPM_P2
2022/04/13 00:02:16;;;;;;;7.87;2.63;;;10.50;99.90;;;;;;4985978;28;20201;-66
2022/04/13 00:04:42;;;;;;;8.60;2.40;;;10.50;99.90;;;;;;4980465;28;20194;-66
2022/04/13 00:07:08;;;;;;;5.47;2.40;;;10.50;99.90;;;;;;4972938;28;20227;-66
2022/04/13 00:09:35;;;;;;;8.67;2.40;;;10.50;99.90;;;;;;4973948;28;20197;-66
2022/04/13 00:12:03;;;;;;;6.23;2.53;;;10.50;99.90;;;;;;4972414;28;20276;-67
2022/04/13 00:14:31;;;;;;;6.13;2.27;;;10.50;99.90;;;;;;4985272;28;20670;-67
2022/04/13 00:16:57;;;;;;;6.87;2.97;;;10.60;99.90;;;;;;4975524;28;20213;-66
2022/04/13 00:19:24;;;;;;;6.50;2.00;;;10.50;99.90;;;;;;4989947;28;20193;-66
2022/04/13 00:21:50;;;;;;;5.87;2.10;;;10.50;99.90;;;;;;4979121;28;20922;-66
2022/04/13 00:24:17;;;;;;;9.67;2.60;;;10.60;99.90;;;;;;4973727;28;20508;-67
2022/04/13 00:26:43;;;;;;;7.13;2.30;;;10.60;99.90;;;;;;4977151;28;20265;-68
2022/04/13 00:29:10;;;;;;;4.60;1.60;;;10.60;99.90;;;;;;4969940;28;20195;-66
2022/04/13 00:31:36;;;;;;;9.27;2.33;;;10.60;99.90;;;;;;4983695;28;20214;-66
2022/04/13 00:34:02;;;;;;;8.53;2.40;;;10.70;99.90;;;;;;4977633;28;20787;-68
2022/04/13 00:36:28;;;;;;;8.70;2.03;;;10.70;99.90;;;;;;4983583;28;20659;-68
2022/04/13 00:38:54;;;;;;;6.83;2.43;;;10.70;99.90;;;;;;4990058;28;20209;-67
2022/04/13 00:41:21;;;;;;;5.83;2.10;;;10.70;99.90;;;;;;4980948;28;20193;-66
2022/04/13 00:44:02;;;;;;;10.40;2.13;;;10.70;99.90;;;;;;4972376;28;20206;-66
2022/04/13 00:46:29;;;;;;;7.27;2.17;;;10.70;99.90;;;;;;4976977;28;20196;-67
2022/04/13 00:48:56;;;;;;;6.97;2.37;;;10.70;99.90;;;;;;4986458;28;20284;-67
2022/04/13 00:51:22;;;;;;;6.07;2.13;;;10.60;99.90;;;;;;4981186;28;20300;-66
2022/04/13 00:53:52;;;;;;;4.80;2.17;;;10.50;99.90;;;;;;4987724;28;20216;-66
2022/04/13 00:56:23;;;;;;;6.80;2.23;;;10.50;99.90;;;;;;4969677;28;20239;-66
2022/04/13 00:58:54;;;;;;;12.90;2.40;;;10.40;99.90;;;;;;4997651;28;20197;-66
2022/04/13 01:01:23;;;;;;;7.13;2.37;;;10.30;99.90;;;;;;4980659;28;20194;-66
2022/04/13 01:03:53;;;;;;;10.23;2.70;;;10.30;99.90;;;;;;4993362;28;20201;-67
2022/04/13 01:06:20;;;;;;;10.60;2.40;;;10.30;99.90;;;;;;4983489;28;20206;-66
2022/04/13 01:08:50;;;;;;;5.67;2.10;;;10.20;99.90;;;;;;4998708;28;20647;-65
2022/04/13 01:11:17;;;;;;;7.63;2.40;;;10.30;99.90;;;;;;4975572;28;20244;-68
2022/04/13 01:13:45;;;;;;;9.00;2.77;;;10.20;99.90;;;;;;4978243;28;21012;-66
2022/04/13 01:16:12;;;;;;;7.70;2.70;;;10.20;99.90;;;;;;4971622;28;20671;-66
2022/04/13 01:18:38;;;;;;;5.90;2.17;;;10.20;99.90;;;;;;4974428;28;20272;-66
2022/04/13 01:21:06;;;;;;;7.33;2.20;;;10.20;99.90;;;;;;4982401;28;20543;-67
2022/04/13 01:23:32;;;;;;;11.97;2.47;;;10.20;99.90;;;;;;4980061;28;20210;-66
2022/04/13 01:25:59;;;;;;;10.37;2.40;;;10.20;99.90;;;;;;4981716;28;20280;-66
2022/04/13 01:28:25;;;;;;;7.47;2.60;;;10.10;99.90;;;;;;4970854;28;20194;-66
2022/04/13 01:30:51;;;;;;;6.63;2.60;;;10.10;99.90;;;;;;4980167;28;20247;-67
2022/04/13 01:33:17;;;;;;;6.77;2.23;;;10.10;99.90;;;;;;4973003;28;20333;-66
2022/04/13 01:35:44;;;;;;;6.63;2.03;;;10.10;99.90;;;;;;4986792;28;20190;-66
2022/04/13 01:38:11;;;;;;;6.50;2.27;;;10.10;99.90;;;;;;4986543;28;20189;-67
2022/04/13 01:40:37;;;;;;;5.50;2.30;;;10.10;99.90;;;;;;4986567;28;20236;-67
2022/04/13 01:43:03;;;;;;;9.13;2.50;;;10.00;99.90;;;;;;5003505;28;20199;-66
2022/04/13 01:45:29;;;;;;;7.87;2.40;;;10.00;99.90;;;;;;4973190;28;20393;-66
2022/04/13 01:47:56;;;;;;;5.93;3.10;;;10.00;99.90;;;;;;4980975;28;20201;-67
2022/04/13 01:50:22;;;;;;;6.83;2.60;;;10.00;99.90;;;;;;5001612;28;20216;-67
2022/04/13 01:52:49;;;;;;;6.10;2.53;;;10.10;99.90;;;;;;4988067;28;20508;-66
2022/04/13 01:55:15;;;;;;;7.00;2.47;;;10.00;99.90;;;;;;4978415;28;20205;-67
2022/04/13 01:57:42;;;;;;;7.20;2.60;;;9.90;99.90;;;;;;4958279;28;20186;-67
2022/04/13 02:00:12;;;;;;;8.00;3.00;;;9.90;99.90;;;;;;4978355;28;20665;-66
2022/04/13 02:02:38;;;;;;;8.53;2.43;;;9.90;99.90;;;;;;4999719;28;20185;-65
2022/04/13 02:05:05;;;;;;;7.87;2.67;;;9.80;99.90;;;;;;4987956;28;20217;-66
2022/04/13 02:07:32;;;;;;;7.07;2.60;;;9.80;99.90;;;;;;4981868;28;20206;-66
2022/04/13 02:09:58;;;;;;;7.70;2.67;;;9.80;99.90;;;;;;4984620;28;20240;-67
2022/04/13 02:12:25;;;;;;;8.77;2.40;;;9.80;99.90;;;;;;4981326;28;20213;-67
2022/04/13 02:14:53;;;;;;;6.23;2.47;;;9.80;99.90;;;;;;4978694;28;20271;-65
2022/04/13 02:17:21;;;;;;;7.80;2.97;;;9.70;99.90;;;;;;4979175;28;20201;-66
2022/04/13 02:19:47;;;;;;;13.33;2.70;;;9.70;99.90;;;;;;4970585;28;20318;-67
2022/04/13 02:22:13;;;;;;;4.67;2.23;;;9.60;99.90;;;;;;4975331;28;20198;-66
2022/04/13 02:24:40;;;;;;;6.47;2.70;;;9.50;99.90;;;;;;4988094;28;20201;-67
2022/04/13 02:27:09;;;;;;;6.50;2.60;;;9.60;99.90;;;;;;4986486;28;20316;-68
2022/04/13 02:29:37;;;;;;;9.70;2.57;;;9.60;99.90;;;;;;4970088;28;20220;-67
2022/04/13 02:32:04;;;;;;;6.40;2.33;;;9.60;99.90;;;;;;4983438;28;20603;-65
2022/04/13 02:34:30;;;;;;;5.10;2.30;;;9.50;99.90;;;;;;4987737;28;20182;-66
2022/04/13 02:36:57;;;;;;;7.47;2.53;;;9.50;99.90;;;;;;4975643;28;20193;-66
2022/04/13 02:39:24;;;;;;;9.83;2.60;;;9.50;99.90;;;;;;4975770;28;20543;-67
2022/04/13 02:41:50;;;;;;;5.27;2.60;;;9.50;99.90;;;;;;4983939;28;20287;-66
2022/04/13 02:44:16;;;;;;;4.17;2.43;;;9.50;99.90;;;;;;4985251;28;20186;-67
2022/04/13 02:46:44;;;;;;;5.37;2.53;;;9.60;99.90;;;;;;4977967;28;20200;-67
2022/04/13 02:49:11;;;;;;;8.17;2.40;;;9.50;99.90;;;;;;4988481;28;20775;-66
2022/04/13 02:51:38;;;;;;;5.37;2.30;;;9.40;99.90;;;;;;5002260;28;20212;-66
2022/04/13 02:54:05;;;;;;;7.80;2.90;;;9.30;99.90;;;;;;4988458;28;20185;-67
2022/04/13 02:56:31;;;;;;;8.70;2.80;;;9.30;99.90;;;;;;4974923;28;20555;-66
2022/04/13 02:58:57;;;;;;;10.90;2.50;;;9.30;99.90;;;;;;4978533;28;20185;-67
2022/04/13 03:01:23;;;;;;;5.57;2.40;;;9.40;99.90;;;;;;4981437;28;20194;-66
2022/04/13 03:03:49;;;;;;;10.67;2.63;;;9.40;99.90;;;;;;5001659;28;20221;-67
2022/04/13 03:06:16;;;;;;;7.43;2.90;;;9.40;99.90;;;;;;4984902;28;20651;-68
2022/04/13 03:08:42;;;;;;;10.43;2.53;;;9.40;99.90;;;;;;4981122;28;20201;-66
2022/04/13 03:11:09;;;;;;;9.93;2.43;;;9.40;99.90;;;;;;4979342;28;20248;-65
2022/04/13 03:13:35;;;;;;;6.03;2.50;;;9.40;99.90;;;;;;4981621;28;20189;-66
2022/04/13 03:16:01;;;;;;;8.17;2.93;;;9.50;99.90;;;;;;4980297;28;20240;-67
2022/04/13 03:18:27;;;;;;;7.90;2.60;;;9.50;99.90;;;;;;4978733;28;20208;-65
2022/04/13 03:20:54;;;;;;;6.40;2.63;;;9.50;99.90;;;;;;4985893;28;20189;-67
2022/04/13 03:23:20;;;;;;;6.30;2.30;;;9.50;99.90;;;;;;4978018;28;20264;-67
2022/04/13 03:25:48;;;;;;;4.87;2.43;;;9.50;99.90;;;;;;4983801;28;20268;-66
2022/04/13 03:28:16;;;;;;;5.87;2.60;;;9.40;99.90;;;;;;4978063;28;20198;-67
2022/04/13 03:30:42;;;;;;;9.23;2.67;;;9.40;99.90;;;;;;4978016;28;20210;-66
2022/04/13 03:33:08;;;;;;;7.60;3.00;;;9.40;99.90;;;;;;4977601;28;20182;-66
2022/04/13 03:35:34;;;;;;;8.67;2.60;;;9.50;99.90;;;;;;4979217;28;20201;-68
2022/04/13 03:38:01;;;;;;;5.50;2.40;;;9.50;99.90;;;;;;4981009;28;20190;-67
2022/04/13 03:40:27;;;;;;;5.27;2.40;;;9.50;99.90;;;;;;4975140;28;20348;-65
2022/04/13 03:42:53;;;;;;;7.30;2.57;;;9.50;99.90;;;;;;4979986;28;20199;-65
2022/04/13 03:45:19;;;;;;;7.80;2.40;;;9.50;99.90;;;;;;4979760;28;20681;-65
2022/04/13 03:47:46;;;;;;;6.27;2.30;;;9.60;99.90;;;;;;4981177;28;20194;-65
2022/04/13 03:50:12;;;;;;;8.50;2.80;;;9.60;99.90;;;;;;4975464;28;20221;-66
2022/04/13 03:52:39;;;;;;;6.40;2.47;;;9.60;99.90;;;;;;4976525;28;20185;-66
2022/04/13 03:55:10;;;;;;;10.20;2.30;;;9.70;99.90;;;;;;4978502;28;20194;-67
2022/04/13 03:57:37;;;;;;;5.17;2.30;;;9.60;99.90;;;;;;4975201;28;20236;-67
2022/04/13 04:00:06;;;;;;;3.77;2.27;;;9.60;99.90;;;;;;4978716;28;20201;-65
2022/04/13 04:02:36;;;;;;;7.53;2.63;;;9.60;99.90;;;;;;4975062;28;20224;-67
2022/04/13 04:05:03;;;;;;;7.10;2.77;;;9.60;99.90;;;;;;4976422;28;20221;-67
2022/04/13 04:07:29;;;;;;;5.93;2.53;;;9.60;99.90;;;;;;4980995;28;20725;-66
2022/04/13 04:09:56;;;;;;;6.47;2.43;;;9.60;99.90;;;;;;4986467;28;20582;-66
2022/04/13 04:12:22;;;;;;;10.67;2.83;;;9.60;99.90;;;;;;4986368;28;20189;-65
2022/04/13 04:14:48;;;;;;;9.73;2.90;;;9.60;99.90;;;;;;4976725;28;20213;-65
2022/04/13 04:17:14;;;;;;;9.77;3.37;;;9.70;99.90;;;;;;4981772;28;20267;-66
2022/04/13 04:19:41;;;;;;;10.20;3.07;;;9.70;99.90;;;;;;4975033;28;20229;-67
2022/04/13 04:22:09;;;;;;;10.37;2.80;;;9.70;99.90;;;;;;4958757;28;20198;-66
2022/04/13 04:24:35;;;;;;;9.90;2.60;;;9.80;99.90;;;;;;4978663;28;20855;-65
2022/04/13 04:27:01;;;;;;;5.93;2.47;;;9.80;99.90;;;;;;4975045;28;20286;-67
2022/04/13 04:29:27;;;;;;;9.10;2.10;;;9.70;99.90;;;;;;4980829;28;20213;-67
2022/04/13 04:31:54;;;;;;;5.23;2.30;;;9.80;99.90;;;;;;4977039;28;20704;-66
2022/04/13 04:34:23;;;;;;;6.20;2.40;;;9.80;99.90;;;;;;4976582;28;20190;-67
2022/04/13 04:36:50;;;;;;;5.27;2.20;;;9.90;99.90;;;;;;4995836;28;20192;-66
2022/04/13 04:39:17;;;;;;;4.80;2.63;;;9.90;99.90;;;;;;5000560;28;20539;-65
2022/04/13 04:41:43;;;;;;;7.03;2.50;;;9.90;99.90;;;;;;4978839;28;20244;-67
2022/04/13 04:44:11;;;;;;;3.50;2.20;;;9.90;99.90;;;;;;4980337;28;20221;-66
2022/04/13 04:46:38;;;;;;;8.80;2.40;;;10.00;99.90;;;;;;4976782;28;20201;-66
2022/04/13 04:49:05;;;;;;;5.17;2.33;;;10.10;99.90;;;;;;4998914;28;20280;-66
2022/04/13 04:51:32;;;;;;;8.60;2.80;;;10.20;99.90;;;;;;4977591;28;20272;-67
2022/04/13 04:54:00;;;;;;;11.70;3.23;;;10.20;99.90;;;;;;4975741;28;20194;-65
2022/04/13 04:56:27;;;;;;;6.00;2.40;;;10.30;99.90;;;;;;4999877;28;20182;-68
2022/04/13 04:58:54;;;;;;;4.13;2.17;;;10.40;99.90;;;;;;4977376;28;20197;-67
2022/04/13 05:01:20;;;;;;;3.37;1.97;;;10.50;99.90;;;;;;4977053;28;20193;-66
2022/04/13 05:03:49;;;;;;;4.67;2.20;;;10.60;99.90;;;;;;4978788;28;20679;-66
2022/04/13 05:06:28;;;;;;;7.23;2.57;;;10.70;99.90;;;;;;4974806;28;20228;-65
2022/04/13 05:08:55;;;;;;;4.70;2.27;;;10.80;99.90;;;;;;4976619;28;20244;-67
2022/04/13 05:11:22;;;;;;;5.43;2.37;;;11.00;99.90;;;;;;4978424;28;20229;-65
2022/04/13 05:13:49;;;;;;;5.90;2.30;;;11.10;99.90;;;;;;4985461;28;20558;-67
2022/04/13 05:16:18;;;;;;;8.17;2.40;;;11.10;99.90;;;;;;4978987;28;20672;-66
2022/04/13 05:18:45;;;;;;;8.23;2.77;;;11.10;99.90;;;;;;4978641;28;20196;-67
2022/04/13 05:21:13;;;;;;;4.20;2.20;;;11.20;99.90;;;;;;4974861;28;20611;-65
2022/04/13 05:23:41;;;;;;;6.13;1.93;;;11.30;99.90;;;;;;4976484;28;20237;-67
2022/04/13 05:26:07;;;;;;;4.90;2.23;;;11.30;99.90;;;;;;4982888;28;20203;-66
2022/04/13 05:28:34;;;;;;;4.67;2.20;;;11.30;99.90;;;;;;4983995;28;20217;-67
2022/04/13 05:31:00;;;;;;;5.37;2.40;;;11.40;99.90;;;;;;4984729;28;20217;-66
2022/04/13 05:33:26;;;;;;;4.23;2.00;;;11.50;99.90;;;;;;4979528;28;20189;-66
2022/04/13 05:35:53;;;;;;;5.27;2.13;;;11.50;99.90;;;;;;4980625;28;20190;-67
2022/04/13 05:38:19;;;;;;;8.67;2.20;;;11.60;99.90;;;;;;4974955;28;20930;-68
2022/04/13 05:40:46;;;;;;;8.27;2.27;;;11.80;99.90;;;;;;4972851;28;20213;-67
2022/04/13 05:43:12;;;;;;;4.03;1.93;;;11.90;99.90;;;;;;4982037;28;20201;-67
2022/04/13 05:45:38;;;;;;;6.47;2.33;;;12.00;99.90;;;;;;4958930;28;20190;-66
2022/04/13 05:48:05;;;;;;;5.67;2.07;;;12.00;99.90;;;;;;4965982;28;20689;-66
2022/04/13 05:50:31;;;;;;;3.53;1.93;;;12.10;99.90;;;;;;4989325;28;20222;-67
2022/04/13 05:52:57;;;;;;;4.87;1.70;;;12.20;99.90;;;;;;4985884;28;20236;-66
2022/04/13 05:55:24;;;;;;;7.40;2.30;;;12.20;99.90;;;;;;5004212;28;20189;-66
2022/04/13 05:57:53;;;;;;;8.47;2.23;;;12.20;99.90;;;;;;4985833;28;20193;-66
2022/04/13 06:00:20;;;;;;;4.90;2.00;;;12.20;99.90;;;;;;4978723;28;20204;-68
2022/04/13 06:02:46;;;;;;;6.77;2.13;;;12.20;99.90;;;;;;5004150;28;20654;-66
2022/04/13 06:05:13;;;;;;;3.83;1.73;;;12.30;99.90;;;;;;4989709;28;20229;-66
2022/04/13 06:07:40;;;;;;;6.10;1.70;;;12.40;99.90;;;;;;4968287;28;20190;-66
2022/04/13 06:10:07;;;;;;;7.13;2.20;;;12.40;99.90;;;;;;4975090;28;20209;-66
2022/04/13 06:12:34;;;;;;;6.97;1.83;;;12.40;99.90;;;;;;4988800;28;20231;-67
2022/04/13 06:15:14;;;;;;;6.03;1.63;;;12.50;99.90;;;;;;4987246;28;20268;-66
2022/04/13 06:17:41;;;;;;;5.83;2.10;;;12.60;99.90;;;;;;4969195;28;20178;-66
2022/04/13 06:20:08;;;;;;;3.23;1.77;;;12.60;99.90;;;;;;4976517;28;20221;-66
2022/04/13 06:22:43;;;;;;;5.30;1.87;;;12.60;99.90;;;;;;4985879;28;20257;-66
2022/04/13 06:25:11;;;;;;;8.03;1.67;;;12.70;99.90;;;;;;4982728;28;20220;-65
2022/04/13 06:27:38;;;;;;;7.03;2.10;;;12.80;99.90;;;;;;4978020;28;20283;-63
2022/04/13 06:30:05;;;;;;;3.47;1.87;;;12.90;99.90;;;;;;4992746;28;20201;-66
2022/04/13 06:32:37;;;;;;;4.77;1.50;;;12.90;99.90;;;;;;4991634;28;20232;-66
2022/04/13 06:35:06;;;;;;;5.20;1.60;;;13.00;99.90;;;;;;4968298;28;20182;-66
2022/04/13 06:37:34;;;;;;;3.13;1.70;;;13.10;99.90;;;;;;4972023;28;20174;-66
2022/04/13 06:40:00;;;;;;;4.63;1.93;;;13.20;99.90;;;;;;4975661;28;20256;-66
2022/04/13 06:42:26;;;;;;;4.20;1.50;;;13.20;99.90;;;;;;4991671;28;20208;-67
2022/04/13 06:44:55;;;;;;;3.77;1.50;;;13.30;99.90;;;;;;4979003;28;20224;-66
2022/04/13 06:47:22;;;;;;;5.53;1.53;;;13.40;99.90;;;;;;4978953;28;20196;-66
2022/04/13 06:49:49;;;;;;;3.07;1.43;;;13.40;99.90;;;;;;5003227;28;20714;-66
2022/04/13 06:52:15;;;;;;;3.83;1.60;;;13.60;99.90;;;;;;4987865;28;20189;-66
2022/04/13 06:54:42;;;;;;;4.27;1.73;;;13.70;99.90;;;;;;4990655;28;20638;-66
2022/04/13 06:57:08;;;;;;;3.83;2.03;;;13.80;99.90;;;;;;5004340;28;20264;-65
2022/04/13 06:59:35;;;;;;;4.23;1.90;;;13.80;99.90;;;;;;4974692;28;20181;-67
2022/04/13 07:02:03;;;;;;;6.10;1.53;;;13.90;99.90;;;;;;4990493;28;20221;-65
2022/04/13 07:04:29;;;;;;;5.67;1.90;;;14.00;99.90;;;;;;5001703;28;20193;-65
2022/04/13 07:06:56;;;;;;;6.07;1.93;;;14.00;99.90;;;;;;4990577;28;20182;-66
2022/04/13 07:09:22;;;;;;;4.20;1.63;;;14.00;99.90;;;;;;4957959;28;20198;-65
2022/04/13 07:11:48;;;;;;;4.47;1.60;;;14.10;99.90;;;;;;4987529;28;20264;-65
2022/04/13 07:14:14;;;;;;;2.97;1.57;;;14.10;99.90;;;;;;4984125;28;20566;-65
2022/04/13 07:16:41;;;;;;;3.07;1.37;;;14.20;99.90;;;;;;4985536;28;20205;-67
2022/04/13 07:19:07;;;;;;;5.03;1.77;;;14.40;99.90;;;;;;4990824;28;20197;-67
2022/04/13 07:21:34;;;;;;;3.60;1.47;;;14.50;99.90;;;;;;4989909;28;20190;-67
2022/04/13 07:24:02;;;;;;;2.30;1.20;;;14.40;99.90;;;;;;4990574;28;20229;-66
2022/04/13 07:26:29;;;;;;;4.73;1.50;;;14.60;99.90;;;;;;4989989;28;20601;-66
2022/04/13 07:28:55;;;;;;;4.43;1.70;;;14.60;99.90;;;;;;4991521;28;20710;-65
2022/04/13 07:31:21;;;;;;;4.20;1.50;;;14.60;99.90;;;;;;5005617;28;20217;-66
2022/04/13 07:33:47;;;;;;;11.60;1.60;;;14.70;99.90;;;;;;4981940;28;20646;-67
2022/04/13 07:36:14;;;;;;;3.47;1.47;;;14.70;99.90;;;;;;4983644;28;20190;-67
2022/04/13 07:38:40;;;;;;;3.53;1.67;;;14.90;99.90;;;;;;4991793;28;20181;-67
2022/04/13 07:41:06;;;;;;;4.60;1.57;;;15.00;99.90;;;;;;4975455;28;20301;-66
2022/04/13 07:43:33;;;;;;;6.83;2.17;;;15.10;99.90;;;;;;4990961;28;20233;-66
2022/04/13 07:45:59;;;;;;;5.93;1.97;;;15.20;99.90;;;;;;4988399;28;20194;-66
2022/04/13 07:48:25;;;;;;;4.13;1.20;;;15.30;99.90;;;;;;4986154;28;20301;-65
2022/04/13 07:50:51;;;;;;;3.83;1.67;;;15.40;99.90;;;;;;4991077;28;20230;-65
2022/04/13 07:53:18;;;;;;;4.40;1.70;;;15.50;99.90;;;;;;4984675;28;20198;-66
2022/04/13 07:55:47;;;;;;;3.17;1.73;;;15.50;99.90;;;;;;4987401;28;20177;-67
2022/04/13 07:58:14;;;;;;;4.27;1.60;;;15.50;99.90;;;;;;4989919;28;20200;-66
2022/04/13 08:00:40;;;;;;;3.03;1.70;;;15.60;99.90;;;;;;4990575;28;20680;-67
2022/04/13 08:03:07;;;;;;;2.80;1.47;;;15.60;99.90;;;;;;4989889;28;20193;-67
2022/04/13 08:05:33;;;;;;;6.23;1.60;;;15.70;99.90;;;;;;4988275;28;20193;-66
2022/04/13 08:07:59;;;;;;;6.50;2.03;;;15.70;99.90;;;;;;4987431;28;20204;-65
2022/04/13 08:10:26;;;;;;;3.87;1.70;;;15.80;99.90;;;;;;4987178;28;20239;-66
2022/04/13 08:12:52;;;;;;;6.47;2.10;;;15.90;99.90;;;;;;4987442;28;20677;-66
2022/04/13 08:15:18;;;;;;;4.30;1.90;;;16.00;99.90;;;;;;4991231;28;20279;-66
2022/04/13 08:17:45;;;;;;;4.73;1.70;;;16.00;99.90;;;;;;4988171;28;20260;-67
2022/04/13 08:20:13;;;;;;;5.50;1.70;;;16.10;99.90;;;;;;4987406;28;20198;-67
2022/04/13 08:22:41;;;;;;;6.33;2.00;;;16.20;99.90;;;;;;4986363;28;20221;-66
2022/04/13 08:25:08;;;;;;;5.87;2.30;;;16.30;99.90;;;;;;4993542;28;20193;-66
2022/04/13 08:27:35;;;;;;;3.70;1.70;;;16.50;99.90;;;;;;4993069;28;20695;-66
2022/04/13 08:30:03;;;;;;;7.53;1.70;;;16.50;99.90;;;;;;4996474;28;20190;-66
2022/04/13 08:32:29;;;;;;;9.97;2.10;;;16.50;99.90;;;;;;4989539;28;20619;-66
2022/04/13 08:34:56;;;;;;;4.47;2.10;;;16.30;99.90;;;;;;4972508;28;20181;-66
2022/04/13 08:37:27;;;;;;;4.43;2.10;;;16.20;99.90;;;;;;4988026;28;20287;-66
2022/04/13 08:39:54;;;;;;;4.27;1.93;;;16.10;99.90;;;;;;5006474;28;20840;-67
2022/04/13 08:42:34;;;;;;;6.40;2.17;;;16.00;99.90;;;;;;5000134;28;20268;-66
2022/04/13 08:45:14;;;;;;;6.40;1.97;;;16.20;99.90;;;;;;4997546;28;20251;-67
2022/04/13 08:47:46;;;;;;;4.47;1.80;;;16.40;99.90;;;;;;4987837;28;20511;-66
2022/04/13 08:50:13;;;;;;;5.73;1.73;;;16.60;99.90;;;;;;4989126;28;20268;-66
2022/04/13 08:52:41;;;;;;;7.07;1.60;;;16.60;99.90;;;;;;4989669;28;20192;-67
2022/04/13 08:55:16;;;;;;;3.67;1.63;;;16.70;99.90;;;;;;4986986;28;20194;-65
2022/04/13 08:57:49;;;;;;;6.50;1.93;;;17.00;99.90;;;;;;4991461;28;20191;-66
2022/04/13 09:00:21;;;;;;;6.03;1.97;;;17.20;99.90;;;;;;4986346;28;20722;-67
2022/04/13 09:03:16;;;;;;;6.03;1.90;;;17.20;99.90;;;;;;4986867;28;20197;-66
2022/04/13 09:05:47;;;;;;;6.03;2.03;;;17.10;99.90;;;;;;5000733;28;20193;-67
2022/04/13 09:08:38;;;;;;;2.33;1.40;;;17.00;99.90;;;;;;4965100;28;20193;-67
2022/04/13 09:11:05;;;;;;;5.03;1.80;;;17.00;99.90;;;;;;4983716;28;20221;-66
2022/04/13 09:13:33;;;;;;;4.47;1.80;;;16.90;99.90;;;;;;4983628;28;20197;-66
2022/04/13 09:16:00;;;;;;;4.17;1.70;;;17.00;99.90;;;;;;4984910;28;20217;-66
2022/04/13 09:18:26;;;;;;;6.00;2.10;;;17.40;99.90;;;;;;4988575;28;20672;-66
2022/04/13 09:20:53;;;;;;;3.77;1.83;;;17.50;99.90;;;;;;5003688;28;20193;-65
2022/04/13 09:23:21;;;;;;;5.13;1.90;;;17.30;99.90;;;;;;4987330;28;20710;-67
2022/04/13 09:25:54;;;;;;;5.53;2.10;;;17.40;99.90;;;;;;4987124;28;20233;-66
2022/04/13 09:28:21;;;;;;;4.33;1.70;;;17.70;99.90;;;;;;4987282;28;20324;-66
2022/04/13 09:30:47;;;;;;;6.10;1.43;;;18.00;99.90;;;;;;4986826;28;20225;-65
2022/04/13 09:33:14;;;;;;;5.07;2.00;;;18.20;99.90;;;;;;4983877;28;20192;-66
2022/04/13 09:35:40;;;;;;;6.13;2.27;;;18.00;99.90;;;;;;4992015;28;20620;-66
2022/04/13 09:38:08;;;;;;;8.00;1.83;;;17.90;99.90;;;;;;5004802;28;20197;-65
2022/04/13 09:40:42;;;;;;;4.57;2.10;;;18.00;99.90;;;;;;4984897;28;20216;-67
2022/04/13 09:43:18;;;;;;;2.93;1.70;;;18.30;99.90;;;;;;4983912;28;20205;-68
2022/04/13 09:45:47;;;;;;;6.13;2.07;;;18.60;99.90;;;;;;4988478;28;20227;-66
2022/04/13 09:48:19;;;;;;;5.00;1.50;;;18.70;99.90;;;;;;4985504;28;20739;-66
2022/04/13 09:50:52;;;;;;;10.40;1.63;;;18.40;99.90;;;;;;4990328;28;20225;-65
2022/04/13 09:53:21;;;;;;;8.00;1.70;;;18.10;99.90;;;;;;4987764;28;20512;-66
2022/04/13 09:56:02;;;;;;;7.27;1.83;;;18.10;99.90;;;;;;4984206;28;20193;-66
2022/04/13 09:58:30;;;;;;;10.37;1.90;;;18.10;99.90;;;;;;4986123;28;20616;-65
2022/04/13 10:01:02;;;;;;;4.00;1.73;;;18.40;99.90;;;;;;4987462;28;20224;-65
2022/04/13 10:03:29;;;;;;;5.63;1.50;;;18.80;99.90;;;;;;4986891;28;20197;-66
2022/04/13 10:05:58;;;;;;;3.67;1.60;;;19.10;99.90;;;;;;4986467;28;20193;-66
2022/04/13 10:08:26;;;;;;;6.77;1.80;;;18.90;99.90;;;;;;4986415;28;20193;-67
2022/04/13 10:10:58;;;;;;;6.70;1.70;;;19.00;99.90;;;;;;4987432;28;20582;-66
2022/04/13 10:13:42;;;;;;;3.97;1.83;;;19.30;99.90;;;;;;4984370;28;20277;-66
2022/04/13 10:16:16;;;;;;;4.30;1.70;;;19.40;99.90;;;;;;4987162;28;21026;-66
2022/04/13 10:18:52;;;;;;;2.40;1.67;;;19.40;99.90;;;;;;4983498;28;20201;-67
2022/04/13 10:21:41;;;;;;;7.20;1.80;;;19.50;99.90;;;;;;4985607;28;20276;-67
2022/04/13 10:24:28;;;;;;;4.87;1.50;;;19.70;99.90;;;;;;5001254;28;20252;-67
2022/04/13 10:27:19;;;;;;;5.23;1.60;;;19.50;99.90;;;;;;4980349;28;20216;-67
2022/04/13 10:29:50;;;;;;;4.90;1.77;;;19.50;99.90;;;;;;4980597;28;20350;-67
2022/04/13 10:32:24;;;;;;;11.87;1.63;;;19.60;99.90;;;;;;4978368;28;20214;-68
2022/04/13 10:34:55;;;;;;;4.97;1.67;;;19.50;99.90;;;;;;4986996;28;20241;-66
2022/04/13 10:37:24;;;;;;;3.77;1.47;;;19.50;99.90;;;;;;4978965;28;20543;-66
2022/04/13 10:39:52;;;;;;;4.73;1.50;;;19.50;99.90;;;;;;4995912;28;20240;-66
2022/04/13 10:42:21;;;;;;;3.40;1.60;;;19.50;99.90;;;;;;4981574;28;20797;-66
2022/04/13 10:45:05;;;;;;;6.47;1.97;;;19.50;99.90;;;;;;4974814;28;20539;-66
2022/04/13 10:47:49;;;;;;;6.53;1.73;;;19.40;99.90;;;;;;4993835;28;20300;-66
2022/04/13 10:50:27;;;;;;;9.33;1.70;;;19.30;99.90;;;;;;4979150;28;20260;-67
2022/04/13 10:53:05;;;;;;;3.87;1.70;;;19.20;99.90;;;;;;4978654;28;20201;-68
2022/04/13 10:55:35;;;;;;;5.40;1.60;;;19.30;99.90;;;;;;4986475;28;20189;-67
2022/04/13 10:58:21;;;;;;;4.30;1.57;;;19.20;99.90;;;;;;4986254;28;20189;-68
2022/04/13 11:00:56;;;;;;;2.27;1.67;;;19.20;99.90;;;;;;4989143;28;20483;-68
2022/04/13 11:03:26;;;;;;;4.20;1.57;;;19.10;99.90;;;;;;4968629;28;20192;-67
2022/04/13 11:05:53;;;;;;;5.70;1.70;;;19.00;99.90;;;;;;4982682;28;20197;-66
2022/04/13 11:08:47;;;;;;;6.13;1.50;;;19.00;99.90;;;;;;4996834;28;20201;-67
2022/04/13 11:11:21;;;;;;;5.40;1.67;;;19.00;99.90;;;;;;4988203;28;22287;-67
2022/04/13 11:13:52;;;;;;;5.50;1.50;;;18.90;99.90;;;;;;4982431;28;20197;-66
2022/04/13 11:16:20;;;;;;;5.87;1.60;;;18.90;99.90;;;;;;4983442;28;20210;-66
2022/04/13 11:19:05;;;;;;;6.93;1.50;;;18.90;99.90;;;;;;4986276;28;20224;-67
2022/04/13 11:21:32;;;;;;;6.60;1.90;;;18.90;99.90;;;;;;4985447;28;20232;-66
2022/04/13 11:23:59;;;;;;;8.63;1.77;;;18.90;99.90;;;;;;4987376;28;20202;-67
2022/04/13 11:26:35;;;;;;;1.80;1.13;;;18.90;99.90;;;;;;4986211;28;20240;-66
2022/04/13 11:29:11;;;;;;;4.17;1.50;;;18.90;99.90;;;;;;4985422;28;20189;-67
2022/04/13 11:32:02;;;;;;;4.63;1.90;;;18.80;99.90;;;;;;4986192;28;20227;-67
2022/04/13 11:34:29;;;;;;;2.70;1.57;;;18.80;99.90;;;;;;4985549;28;21733;-67
2022/04/13 11:37:00;;;;;;;4.67;1.53;;;18.70;99.90;;;;;;4982024;28;20571;-67
2022/04/13 11:40:13;;;;;;;5.00;1.50;;;18.60;99.90;;;;;;4981127;28;20682;-66
2022/04/13 11:42:39;;;;;;;4.83;1.40;;;18.80;99.90;;;;;;4978740;28;20202;-67
2022/04/13 11:45:11;;;;;;;3.53;1.40;;;18.80;99.90;;;;;;4990509;28;20190;-66
2022/04/13 11:47:46;;;;;;;6.13;1.50;;;18.80;99.90;;;;;;4990663;28;20220;-67
2022/04/13 11:50:18;;;;;;;4.83;1.70;;;18.80;99.90;;;;;;4987908;28;20249;-67
2022/04/13 11:52:56;;;;;;;6.77;1.60;;;18.70;99.90;;;;;;4983386;28;20228;-66
2022/04/13 11:55:42;;;;;;;5.60;1.60;;;18.80;99.90;;;;;;4984784;28;20202;-66
2022/04/13 11:58:08;;;;;;;2.43;1.10;;;18.70;99.90;;;;;;4984485;28;20268;-66
2022/04/13 12:00:52;;;;;;;4.73;1.30;;;18.70;99.90;;;;;;4984122;28;20709;-68
2022/04/13 12:03:31;;;;;;;3.20;1.37;;;18.80;99.90;;;;;;4980779;28;20594;-68
2022/04/13 12:06:07;;;;;;;3.60;1.40;;;18.70;99.90;;;;;;4985080;28;20189;-67
2022/04/13 12:08:39;;;;;;;5.50;1.60;;;18.70;99.90;;;;;;4982250;28;20207;-68
2022/04/13 12:11:17;;;;;;;4.47;1.30;;;18.60;99.90;;;;;;4987681;28;20213;-68
2022/04/13 12:13:56;;;;;;;4.03;1.40;;;18.50;99.90;;;;;;4986271;28;20243;-67
2022/04/13 12:16:28;;;;;;;5.57;1.43;;;18.60;99.90;;;;;;4987015;28;20212;-67
2022/04/13 12:19:05;;;;;;;2.90;1.37;;;18.60;99.90;;;;;;4985993;28;20649;-67
2022/04/13 12:21:36;;;;;;;5.23;1.47;;;18.60;99.90;;;;;;4989217;28;20288;-67
2022/04/13 12:24:08;;;;;;;2.27;1.40;;;18.60;99.90;;;;;;4986028;28;20232;-69
2022/04/13 12:26:37;;;;;;;5.63;1.50;;;18.50;99.90;;;;;;4976305;28;20196;-68
2022/04/13 12:29:21;;;;;;;5.13;1.37;;;18.50;99.90;;;;;;4978868;28;20543;-67
2022/04/13 12:31:56;;;;;;;4.53;1.40;;;18.60;99.90;;;;;;4967695;28;20214;-64
2022/04/13 12:34:26;;;;;;;6.87;1.50;;;18.50;99.90;;;;;;4985931;28;20197;-66
2022/04/13 12:36:56;;;;;;;2.37;1.40;;;18.50;99.90;;;;;;4986425;28;20185;-67
2022/04/13 12:39:33;;;;;;;3.90;1.63;;;18.40;99.90;;;;;;4987071;28;20578;-68
2022/04/13 12:42:02;;;;;;;6.70;1.30;;;18.40;99.90;;;;;;4988346;28;20228;-67
2022/04/13 12:44:29;;;;;;;5.07;1.37;;;18.40;99.90;;;;;;4988096;28;20193;-67
2022/04/13 12:47:07;;;;;;;3.83;1.27;;;18.50;99.90;;;;;;4989498;28;20208;-67
2022/04/13 12:49:36;;;;;;;4.73;1.63;;;18.40;99.90;;;;;;4986766;28;20197;-67
2022/04/13 12:52:07;;;;;;;2.83;1.50;;;18.30;99.90;;;;;;4989210;28;20209;-68
2022/04/13 12:54:36;;;;;;;6.67;1.50;;;18.30;99.90;;;;;;4972912;28;20656;-67
2022/04/13 12:57:03;;;;;;;8.53;1.63;;;18.30;99.90;;;;;;4987187;28;20908;-67
2022/04/13 12:59:34;;;;;;;6.60;1.60;;;18.30;99.90;;;;;;4982500;28;20189;-67